Time;durP1;ratioP1;P1;durP2;ratioP2;P2;SDS_P1;SDS_P2;PMS_P1;PMS_P2;Temp;Humidity;BMP_temperature;BMP_pressure;BME280_temperature;BME280_humidity;BME280_pressure;Samples;Min_cycle;Max_cycle;Signal;HPM_P1;HPM_P2
2023/12/01 00:02:21;;;;;;;;;;;;;;;;;;5055814;28;19912;-47
2023/12/01 00:04:47;;;;;;;;;;;;;;;;;;5072245;28;19970;-47
2023/12/01 00:07:13;;;;;;;;;;;;;;;;;;5074444;28;19913;-46
2023/12/01 00:09:40;;;;;;;;;;;;;;;;;;5056486;28;19912;-47
2023/12/01 00:12:06;;;;;;;;;;;;;;;;;;5066352;28;20268;-46
2023/12/01 00:14:32;;;;;;;;;;;;;;;;;;5067141;28;20289;-46
2023/12/01 00:16:58;;;;;;;;;;;;;;;;;;5074066;28;19909;-46
2023/12/01 00:19:24;;;;;;;;;;;;;;;;;;5073794;28;19909;-47
2023/12/01 00:21:50;;;;;;;;;;;;;;;;;;5073927;28;20292;-46
2023/12/01 00:24:16;;;;;;;;;;;;;;;;;;5073395;28;19908;-47
2023/12/01 00:26:43;;;;;;;;;;;;;;;;;;5064719;28;20011;-47
2023/12/01 00:29:09;;;;;;;;;;;;;;;;;;5055097;28;19916;-48
2023/12/01 00:31:35;;;;;;;;;;;;;;;;;;5054621;28;20442;-46
2023/12/01 00:34:01;;;;;;;;;;;;;;;;;;5059898;28;20375;-46
2023/12/01 00:36:27;;;;;;;;;;;;;;;;;;5058234;28;19909;-46
2023/12/01 00:38:53;;;;;;;;;;;;;;;;;;5052918;28;19916;-46
2023/12/01 00:41:19;;;;;;;;;;;;;;;;;;5073344;28;19912;-47
2023/12/01 00:43:45;;;;;;;;;;;;;;;;;;5107339;22;19982;-55
2023/12/01 00:46:11;;;;;;;;;;;;;;;;;;5018666;28;19939;-56
2023/12/01 00:48:37;;;;;;;;;;;;;;;;;;5033792;28;19921;-52
2023/12/01 00:51:03;;;;;;;;;;;;;;;;;;5015792;28;19909;-51
2023/12/01 00:53:29;;;;;;;;;;;;;;;;;;5033609;28;19920;-55
2023/12/01 00:55:55;;;;;;;;;;;;;;;;;;5015873;28;19916;-56
2023/12/01 00:58:21;;;;;;;;;;;;;;;;;;5041918;28;19961;-57
2023/12/01 01:00:47;;;;;;;;;;;;;;;;;;5049959;28;19915;-55
2023/12/01 01:03:14;;;;;;;;;;;;;;;;;;5052805;28;19913;-57
2023/12/01 01:05:40;;;;;;;;;;;;;;;;;;5018965;28;19936;-57
2023/12/01 01:08:06;;;;;;;;;;;;;;;;;;5035293;28;19956;-57
2023/12/01 01:10:33;;;;;;;;;;;;;;;;;;5034561;28;20354;-56
2023/12/01 01:12:59;;;;;;;;;;;;;;;;;;5052868;28;19908;-57
2023/12/01 01:15:25;;;;;;;;;;;;;;;;;;5048705;28;20375;-54
2023/12/01 01:17:51;;;;;;;;;;;;;;;;;;5034159;28;20359;-57
2023/12/01 01:20:17;;;;;;;;;;;;;;;;;;5031788;28;19940;-56
2023/12/01 01:22:43;;;;;;;;;;;;;;;;;;5035278;28;19935;-57
2023/12/01 01:25:09;;;;;;;;;;;;;;;;;;5034672;28;19916;-56
2023/12/01 01:27:35;;;;;;;;;;;;;;;;;;5018194;28;19916;-53
2023/12/01 01:30:01;;;;;;;;;;;;;;;;;;5052122;28;19915;-56
2023/12/01 01:32:27;;;;;;;;;;;;;;;;;;5048703;28;19915;-52
2023/12/01 01:34:53;;;;;;;;;;;;;;;;;;5051251;28;19953;-56
2023/12/01 01:37:19;;;;;;;;;;;;;;;;;;5043377;28;20282;-56
2023/12/01 01:39:45;;;;;;;;;;;;;;;;;;5051844;28;20313;-56
2023/12/01 01:42:12;;;;;;;;;;;;;;;;;;5018683;28;20325;-57
2023/12/01 01:44:38;;;;;;;;;;;;;;;;;;5035231;28;20259;-57
2023/12/01 01:47:04;;;;;;;;;;;;;;;;;;5022510;28;19917;-56
2023/12/01 01:49:30;;;;;;;;;;;;;;;;;;5018243;28;20306;-56
2023/12/01 01:51:56;;;;;;;;;;;;;;;;;;5052516;28;20469;-55
2023/12/01 01:54:22;;;;;;;;;;;;;;;;;;5051993;28;19915;-57
2023/12/01 01:56:48;;;;;;;;;;;;;;;;;;5052186;28;19911;-52
2023/12/01 01:59:19;;;;;;;;;;;;;;;;;;5032970;28;19955;-56
2023/12/01 02:01:45;;;;;;;;;;;;;;;;;;5033503;28;19909;-57
2023/12/01 02:04:11;;;;;;;;;;;;;;;;;;5034153;28;19905;-56
2023/12/01 02:06:39;;;;;;;;;;;;;;;;;;5051381;28;19970;-56
2023/12/01 02:09:06;;;;;;;;;;;;;;;;;;5030743;28;19912;-53
2023/12/01 02:11:32;;;;;;;;;;;;;;;;;;5033401;28;19908;-56
2023/12/01 02:13:59;;;;;;;;;;;;;;;;;;5033264;28;19916;-54
2023/12/01 02:16:25;;;;;;;;;;;;;;;;;;5051562;28;19916;-56
2023/12/01 02:18:54;;;;;;;;;;;;;;;;;;5033311;28;19956;-56
2023/12/01 02:21:20;;;;;;;;;;;;;;;;;;5033104;28;20286;-57
2023/12/01 02:23:46;;;;;;;;;;;;;;;;;;5033347;28;20267;-57
2023/12/01 02:26:12;;;;;;;;;;;;;;;;;;5051498;28;19974;-54
2023/12/01 02:28:38;;;;;;;;;;;;;;;;;;5053992;28;19977;-56
2023/12/01 02:31:05;;;;;;;;;;;;;;;;;;5071780;28;20006;-56
2023/12/01 02:33:31;;;;;;;;;;;;;;;;;;5037456;28;19970;-56
2023/12/01 02:35:58;;;;;;;;;;;;;;;;;;5071992;28;19912;-56
2023/12/01 02:38:24;;;;;;;;;;;;;;;;;;5071501;28;19958;-53
2023/12/01 02:40:50;;;;;;;;;;;;;;;;;;5051996;28;19912;-56
2023/12/01 02:43:16;;;;;;;;;;;;;;;;;;5050387;28;19912;-57
2023/12/01 02:45:42;;;;;;;;;;;;;;;;;;5056215;28;19951;-57
2023/12/01 02:48:08;;;;;;;;;;;;;;;;;;5050515;28;19920;-54
2023/12/01 02:50:35;;;;;;;;;;;;;;;;;;5050605;28;20326;-56
2023/12/01 02:53:01;;;;;;;;;;;;;;;;;;5050339;28;19934;-53
2023/12/01 02:55:27;;;;;;;;;;;;;;;;;;5051799;28;19978;-54
2023/12/01 02:57:53;;;;;;;;;;;;;;;;;;5036758;28;19909;-55
2023/12/01 03:00:20;;;;;;;;;;;;;;;;;;5051775;28;19916;-57
2023/12/01 03:02:46;;;;;;;;;;;;;;;;;;5051211;28;19909;-55
2023/12/01 03:05:12;;;;;;;;;;;;;;;;;;5029879;28;19956;-56
2023/12/01 03:07:38;;;;;;;;;;;;;;;;;;5031653;28;20446;-56
2023/12/01 03:10:04;;;;;;;;;;;;;;;;;;5032621;28;19912;-57
2023/12/01 03:12:30;;;;;;;;;;;;;;;;;;5033536;28;20298;-53
2023/12/01 03:14:56;;;;;;;;;;;;;;;;;;5033791;28;20383;-56
2023/12/01 03:17:23;;;;;;;;;;;;;;;;;;5030227;28;19940;-57
2023/12/01 03:19:49;;;;;;;;;;;;;;;;;;5030419;28;19909;-54
2023/12/01 03:22:15;;;;;;;;;;;;;;;;;;5031386;28;19909;-57
2023/12/01 03:24:41;;;;;;;;;;;;;;;;;;5032430;28;19909;-57
2023/12/01 03:27:07;;;;;;;;;;;;;;;;;;5058148;28;19912;-53
2023/12/01 03:29:34;;;;;;;;;;;;;;;;;;5041248;28;19915;-56
2023/12/01 03:32:00;;;;;;;;;;;;;;;;;;5055051;28;20303;-56
2023/12/01 03:34:26;;;;;;;;;;;;;;;;;;5037300;28;20416;-53
2023/12/01 03:36:53;;;;;;;;;;;;;;;;;;5054806;28;19913;-56
2023/12/01 03:39:19;;;;;;;;;;;;;;;;;;5020771;28;19909;-57
2023/12/01 03:41:45;;;;;;;;;;;;;;;;;;5020181;28;19908;-54
2023/12/01 03:44:11;;;;;;;;;;;;;;;;;;5035521;28;19953;-54
2023/12/01 03:46:37;;;;;;;;;;;;;;;;;;5053466;28;20469;-56
2023/12/01 03:49:03;;;;;;;;;;;;;;;;;;5036884;28;19908;-56
2023/12/01 03:51:29;;;;;;;;;;;;;;;;;;5036753;28;19916;-54
2023/12/01 03:53:55;;;;;;;;;;;;;;;;;;5035844;28;19916;-56
2023/12/01 03:56:21;;;;;;;;;;;;;;;;;;5036651;28;19908;-56
2023/12/01 03:58:48;;;;;;;;;;;;;;;;;;5036851;28;20007;-57
2023/12/01 04:01:15;;;;;;;;;;;;;;;;;;5033631;28;19909;-56
2023/12/01 04:03:41;;;;;;;;;;;;;;;;;;5019851;28;19909;-56
2023/12/01 04:06:07;;;;;;;;;;;;;;;;;;5032653;28;19981;-54
2023/12/01 04:08:33;;;;;;;;;;;;;;;;;;5035419;28;19920;-54
2023/12/01 04:11:00;;;;;;;;;;;;;;;;;;5041673;28;19909;-56
2023/12/01 04:13:27;;;;;;;;;;;;;;;;;;5022344;28;20436;-55
2023/12/01 04:15:53;;;;;;;;;;;;;;;;;;5042593;28;19908;-53
2023/12/01 04:18:19;;;;;;;;;;;;;;;;;;5054184;28;20449;-56
2023/12/01 04:20:45;;;;;;;;;;;;;;;;;;5032768;28;20015;-54
2023/12/01 04:23:11;;;;;;;;;;;;;;;;;;5036180;28;19916;-55
2023/12/01 04:25:37;;;;;;;;;;;;;;;;;;5053856;28;19920;-57
2023/12/01 04:28:03;;;;;;;;;;;;;;;;;;5054167;28;19951;-56
2023/12/01 04:30:30;;;;;;;;;;;;;;;;;;5053469;28;19920;-57
2023/12/01 04:32:56;;;;;;;;;;;;;;;;;;5032439;28;19909;-56
2023/12/01 04:35:22;;;;;;;;;;;;;;;;;;5034232;28;19912;-53
2023/12/01 04:37:49;;;;;;;;;;;;;;;;;;5034624;28;19988;-56
2023/12/01 04:40:15;;;;;;;;;;;;;;;;;;5053409;28;20348;-56
2023/12/01 04:42:41;;;;;;;;;;;;;;;;;;5053670;28;19931;-56
2023/12/01 04:45:11;;;;;;;;;;;;;;;;;;5052548;28;19952;-56
2023/12/01 04:47:37;;;;;;;;;;;;;;;;;;5044616;28;19935;-56
2023/12/01 04:50:04;;;;;;;;;;;;;;;;;;5057650;28;19940;-57
2023/12/01 04:52:31;;;;;;;;;;;;;;;;;;5034741;28;19909;-53
2023/12/01 04:54:57;;;;;;;;;;;;;;;;;;5017117;28;19916;-56
2023/12/01 04:57:23;;;;;;;;;;;;;;;;;;5051990;28;19915;-55
2023/12/01 04:59:54;;;;;;;;;;;;;;;;;;5052583;28;19908;-56
2023/12/01 05:02:21;;;;;;;;;;;;;;;;;;5034544;28;19919;-57
2023/12/01 05:04:50;;;;;;;;;;;;;;;;;;5052414;28;20001;-54
2023/12/01 05:07:16;;;;;;;;;;;;;;;;;;5052436;28;19960;-54
2023/12/01 05:09:42;;;;;;;;;;;;;;;;;;5051983;28;19954;-56
2023/12/01 05:12:08;;;;;;;;;;;;;;;;;;5058274;28;20386;-56
2023/12/01 05:14:34;;;;;;;;;;;;;;;;;;5067670;28;19913;-56
2023/12/01 05:17:00;;;;;;;;;;;;;;;;;;5063555;28;19915;-55
2023/12/01 05:19:27;;;;;;;;;;;;;;;;;;5053723;28;19915;-56
2023/12/01 05:21:53;;;;;;;;;;;;;;;;;;5061992;28;19904;-55
2023/12/01 05:24:19;;;;;;;;;;;;;;;;;;5072400;28;19909;-53
2023/12/01 05:26:45;;;;;;;;;;;;;;;;;;5063788;28;19911;-54
2023/12/01 05:29:13;;;;;;;;;;;;;;;;;;5052903;28;19915;-55
2023/12/01 05:31:39;;;;;;;;;;;;;;;;;;5060546;28;20309;-56
2023/12/01 05:34:05;;;;;;;;;;;;;;;;;;5055297;28;19908;-56
2023/12/01 05:36:31;;;;;;;;;;;;;;;;;;5065285;28;19904;-55
2023/12/01 05:38:57;;;;;;;;;;;;;;;;;;5055043;28;20007;-56
2023/12/01 05:41:23;;;;;;;;;;;;;;;;;;5060047;28;19987;-57
2023/12/01 05:43:51;;;;;;;;;;;;;;;;;;5054890;28;20298;-52
2023/12/01 05:46:17;;;;;;;;;;;;;;;;;;5066552;28;19908;-53
2023/12/01 05:48:44;;;;;;;;;;;;;;;;;;5052388;28;19912;-54
2023/12/01 05:51:11;;;;;;;;;;;;;;;;;;5057687;28;19912;-57
2023/12/01 05:53:37;;;;;;;;;;;;;;;;;;5071147;28;20286;-55
2023/12/01 05:56:03;;;;;;;;;;;;;;;;;;5065974;28;19910;-57
2023/12/01 05:58:29;;;;;;;;;;;;;;;;;;5054810;28;19912;-57
2023/12/01 06:00:56;;;;;;;;;;;;;;;;;;5057595;28;19912;-52
2023/12/01 06:03:22;;;;;;;;;;;;;;;;;;5069035;28;20374;-56
2023/12/01 06:05:48;;;;;;;;;;;;;;;;;;5065951;28;19909;-57
2023/12/01 06:08:14;;;;;;;;;;;;;;;;;;5056595;28;19958;-51
2023/12/01 06:10:41;;;;;;;;;;;;;;;;;;5050089;28;19913;-56
2023/12/01 06:13:07;;;;;;;;;;;;;;;;;;5048729;28;19950;-57
2023/12/01 06:15:33;;;;;;;;;;;;;;;;;;5065749;28;19909;-54
2023/12/01 06:17:59;;;;;;;;;;;;;;;;;;5072025;28;19904;-56
2023/12/01 06:20:25;;;;;;;;;;;;;;;;;;5067659;28;19943;-54
2023/12/01 06:22:51;;;;;;;;;;;;;;;;;;5054013;28;20389;-52
2023/12/01 06:25:17;;;;;;;;;;;;;;;;;;5065596;28;19909;-54
2023/12/01 06:27:43;;;;;;;;;;;;;;;;;;5054815;28;20359;-55
2023/12/01 06:30:12;;;;;;;;;;;;;;;;;;5066748;28;19905;-56
2023/12/01 06:32:38;;;;;;;;;;;;;;;;;;5060566;28;19962;-55
2023/12/01 06:35:04;;;;;;;;;;;;;;;;;;5052813;28;19958;-56
2023/12/01 06:37:30;;;;;;;;;;;;;;;;;;5063535;28;19908;-57
2023/12/01 06:39:56;;;;;;;;;;;;;;;;;;5051852;28;19912;-57
2023/12/01 06:42:22;;;;;;;;;;;;;;;;;;5060090;28;20405;-55
2023/12/01 06:44:49;;;;;;;;;;;;;;;;;;5094708;22;20305;-47
2023/12/01 06:47:15;;;;;;;;;;;;;;;;;;5084189;28;20266;-48
2023/12/01 06:49:41;;;;;;;;;;;;;;;;;;5077320;28;20374;-48
2023/12/01 06:52:08;;;;;;;;;;;;;;;;;;5084267;28;20427;-47
2023/12/01 06:54:34;;;;;;;;;;;;;;;;;;5085397;28;20728;-46
2023/12/01 06:57:00;;;;;;;;;;;;;;;;;;5080616;28;20294;-45
2023/12/01 06:59:26;;;;;;;;;;;;;;;;;;5078617;28;20014;-49
2023/12/01 07:01:52;;;;;;;;;;;;;;;;;;5087116;28;19947;-46
2023/12/01 07:04:19;;;;;;;;;;;;;;;;;;5091660;28;20003;-49
2023/12/01 07:06:46;;;;;;;;;;;;;;;;;;5084538;28;19912;-49
2023/12/01 07:09:17;;;;;;;;;;;;;;;;;;5075566;28;19909;-49
2023/12/01 07:11:43;;;;;;;;;;;;;;;;;;5086848;28;19908;-48
2023/12/01 07:14:12;;;;;;;;;;;;;;;;;;5092754;28;19904;-48
2023/12/01 07:16:38;;;;;;;;;;;;;;;;;;5074464;28;20061;-48
2023/12/01 07:19:04;;;;;;;;;;;;;;;;;;5077052;28;20248;-50
2023/12/01 07:21:30;;;;;;;;;;;;;;;;;;5086512;28;19961;-49
2023/12/01 07:23:58;;;;;;;;;;;;;;;;;;5093804;28;20002;-48
2023/12/01 07:26:24;;;;;;;;;;;;;;;;;;5073926;28;19911;-51
2023/12/01 07:28:52;;;;;;;;;;;;;;;;;;5076347;28;19920;-48
2023/12/01 07:31:18;;;;;;;;;;;;;;;;;;5077328;28;19908;-49
2023/12/01 07:33:44;;;;;;;;;;;;;;;;;;5075655;28;19943;-48
2023/12/01 07:36:11;;;;;;;;;;;;;;;;;;5082067;28;19908;-49
2023/12/01 07:38:37;;;;;;;;;;;;;;;;;;5076486;28;19904;-44
2023/12/01 07:41:04;;;;;;;;;;;;;;;;;;5087916;28;20301;-44
2023/12/01 07:43:30;;;;;;;;;;;;;;;;;;5094908;28;19962;-48
2023/12/01 07:45:56;;;;;;;;;;;;;;;;;;5086452;28;19912;-48
2023/12/01 07:48:22;;;;;;;;;;;;;;;;;;5073767;28;20307;-48
2023/12/01 07:50:48;;;;;;;;;;;;;;;;;;5081621;28;19904;-49
2023/12/01 07:53:14;;;;;;;;;;;;;;;;;;5077095;28;20003;-47
2023/12/01 07:55:41;;;;;;;;;;;;;;;;;;5088269;28;19904;-49
2023/12/01 07:58:07;;;;;;;;;;;;;;;;;;5074781;28;19909;-49
2023/12/01 08:00:33;;;;;;;;;;;;;;;;;;5080041;28;20382;-49
2023/12/01 08:02:59;;;;;;;;;;;;;;;;;;5094593;28;20361;-49
2023/12/01 08:05:26;;;;;;;;;;;;;;;;;;5088309;28;19904;-47
2023/12/01 08:07:52;;;;;;;;;;;;;;;;;;5076027;28;20002;-48
2023/12/01 08:10:18;;;;;;;;;;;;;;;;;;5079224;28;19916;-48
2023/12/01 08:12:44;;;;;;;;;;;;;;;;;;5092262;28;19993;-49
2023/12/01 08:15:10;;;;;;;;;;;;;;;;;;5088244;28;19908;-49
2023/12/01 08:17:39;;;;;;;;;;;;;;;;;;5078128;28;20006;-49
2023/12/01 08:20:06;;;;;;;;;;;;;;;;;;5079701;28;20501;-47
2023/12/01 08:22:32;;;;;;;;;;;;;;;;;;5090219;28;20286;-48
2023/12/01 08:24:58;;;;;;;;;;;;;;;;;;5088228;28;20344;-49
2023/12/01 08:27:24;;;;;;;;;;;;;;;;;;5059355;28;20027;-46
2023/12/01 08:29:51;;;;;;;;;;;;;;;;;;5075317;28;19915;-50
2023/12/01 08:32:17;;;;;;;;;;;;;;;;;;5094257;28;20348;-49
2023/12/01 08:34:43;;;;;;;;;;;;;;;;;;5094439;28;20301;-49
2023/12/01 08:37:09;;;;;;;;;;;;;;;;;;5094460;28;19914;-50
2023/12/01 08:39:35;;;;;;;;;;;;;;;;;;5094465;28;19912;-46
2023/12/01 08:42:01;;;;;;;;;;;;;;;;;;5094074;28;19908;-49
2023/12/01 08:44:27;;;;;;;;;;;;;;;;;;5094062;28;19912;-46
2023/12/01 08:46:53;;;;;;;;;;;;;;;;;;5094003;28;19909;-48
2023/12/01 08:49:19;;;;;;;;;;;;;;;;;;5076010;28;19915;-49
2023/12/01 08:51:45;;;;;;;;;;;;;;;;;;5093936;28;19931;-49
2023/12/01 08:54:12;;;;;;;;;;;;;;;;;;5082415;28;19931;-48
2023/12/01 08:56:38;;;;;;;;;;;;;;;;;;5053771;28;20262;-49
2023/12/01 08:59:04;;;;;;;;;;;;;;;;;;5053794;28;20330;-50
2023/12/01 09:01:30;;;;;;;;;;;;;;;;;;5053533;28;19947;-48
2023/12/01 09:03:56;;;;;;;;;;;;;;;;;;5053637;28;19936;-48
2023/12/01 09:06:22;;;;;;;;;;;;;;;;;;5053649;28;19936;-48
2023/12/01 09:08:48;;;;;;;;;;;;;;;;;;5052233;28;19912;-50
2023/12/01 09:11:14;;;;;;;;;;;;;;;;;;5052111;28;19912;-51
2023/12/01 09:13:40;;;;;;;;;;;;;;;;;;5053598;28;19916;-51
2023/12/01 09:16:06;;;;;;;;;;;;;;;;;;5053425;28;19955;-46
2023/12/01 09:18:33;;;;;;;;;;;;;;;;;;5053327;28;19959;-51
2023/12/01 09:20:59;;;;;;;;;;;;;;;;;;5053147;28;19909;-49
2023/12/01 09:23:25;;;;;;;;;;;;;;;;;;5052183;28;19912;-50
2023/12/01 09:25:51;;;;;;;;;;;;;;;;;;5053144;28;19916;-51
2023/12/01 09:28:17;;;;;;;;;;;;;;;;;;5053094;28;20367;-48
2023/12/01 09:30:43;;;;;;;;;;;;;;;;;;5051539;28;19909;-49
2023/12/01 09:33:09;;;;;;;;;;;;;;;;;;5052953;28;19943;-52
2023/12/01 09:35:35;;;;;;;;;;;;;;;;;;5052817;28;19927;-50
2023/12/01 09:38:01;;;;;;;;;;;;;;;;;;5051865;28;20007;-49
2023/12/01 09:40:27;;;;;;;;;;;;;;;;;;5052890;28;19909;-48
2023/12/01 09:42:53;;;;;;;;;;;;;;;;;;5072625;28;19931;-48
2023/12/01 09:45:22;;;;;;;;;;;;;;;;;;5054617;28;19919;-46
2023/12/01 09:47:48;;;;;;;;;;;;;;;;;;5072872;28;20011;-48
2023/12/01 09:50:15;;;;;;;;;;;;;;;;;;5072757;28;19919;-48
2023/12/01 09:52:41;;;;;;;;;;;;;;;;;;5072467;28;20445;-49
2023/12/01 09:55:15;;;;;;;;;;;;;;;;;;5110082;27;19918;-49
2023/12/01 09:57:41;;;;;;;;;;;;;;;;;;5108804;28;19912;-50
2023/12/01 10:00:11;;;;;;;;;;;;;;;;;;5108735;28;19908;-47
2023/12/01 10:02:38;;;;;;;;;;;;;;;;;;5109745;28;19916;-47
2023/12/01 10:05:04;;;;;;;;;;;;;;;;;;5109915;28;19912;-47
2023/12/01 10:07:31;;;;;;;;;;;;;;;;;;5110491;28;19915;-49
2023/12/01 10:09:57;;;;;;;;;;;;;;;;;;5109828;28;20002;-47
2023/12/01 10:12:23;;;;;;;;;;;;;;;;;;5109617;28;19912;-47
2023/12/01 10:14:49;;;;;;;;;;;;;;;;;;5109573;28;19916;-47
2023/12/01 10:17:15;;;;;;;;;;;;;;;;;;5109753;28;19923;-47
2023/12/01 10:19:41;;;;;;;;;;;;;;;;;;5108379;28;20003;-47
2023/12/01 10:22:07;;;;;;;;;;;;;;;;;;5109435;28;20399;-48
2023/12/01 10:24:33;;;;;;;;;;;;;;;;;;5109584;28;19911;-47
2023/12/01 10:27:04;;;;;;;;;;;;;;;;;;5109481;28;19908;-47
2023/12/01 10:29:30;;;;;;;;;;;;;;;;;;5109634;28;19916;-46
2023/12/01 10:31:56;;;;;;;;;;;;;;;;;;5108086;28;19969;-47
2023/12/01 10:34:23;;;;;;;;;;;;;;;;;;5109283;28;19930;-50
2023/12/01 10:36:52;;;;;;;;;;;;;;;;;;5108135;28;19919;-50
2023/12/01 10:39:18;;;;;;;;;;;;;;;;;;5109286;28;19916;-48
2023/12/01 10:41:47;;;;;;;;;;;;;;;;;;5108991;28;19912;-49
2023/12/01 10:44:13;;;;;;;;;;;;;;;;;;5107898;28;20323;-47
2023/12/01 10:46:39;;;;;;;;;;;;;;;;;;5109249;28;19915;-48
2023/12/01 10:49:06;;;;;;;;;;;;;;;;;;5109183;28;19911;-47
2023/12/01 10:51:32;;;;;;;;;;;;;;;;;;5108975;28;20433;-48
2023/12/01 10:53:58;;;;;;;;;;;;;;;;;;5108589;28;20292;-47
2023/12/01 10:56:24;;;;;;;;;;;;;;;;;;5108789;28;20376;-46
2023/12/01 10:58:52;;;;;;;;;;;;;;;;;;5108939;28;19938;-46
2023/12/01 11:01:18;;;;;;;;;;;;;;;;;;5090378;28;20441;-49
2023/12/01 11:03:45;;;;;;;;;;;;;;;;;;5108927;28;19931;-47
2023/12/01 11:06:11;;;;;;;;;;;;;;;;;;5097582;28;20372;-46
2023/12/01 11:08:37;;;;;;;;;;;;;;;;;;5095085;28;19912;-47
2023/12/01 11:11:03;;;;;;;;;;;;;;;;;;5094911;28;19915;-46
2023/12/01 11:13:29;;;;;;;;;;;;;;;;;;5094966;28;19916;-46
2023/12/01 11:15:55;;;;;;;;;;;;;;;;;;5095050;28;20384;-46
2023/12/01 11:18:21;;;;;;;;;;;;;;;;;;5094977;28;19912;-47
2023/12/01 11:20:48;;;;;;;;;;;;;;;;;;5094737;28;19918;-47
2023/12/01 11:23:14;;;;;;;;;;;;;;;;;;5104936;28;19912;-47
2023/12/01 11:25:43;;;;;;;;;;;;;;;;;;5094679;28;19919;-48
2023/12/01 11:28:09;;;;;;;;;;;;;;;;;;5093958;28;20284;-47
2023/12/01 11:30:35;;;;;;;;;;;;;;;;;;5103899;28;19912;-47
2023/12/01 11:33:02;;;;;;;;;;;;;;;;;;5094564;28;19912;-49
2023/12/01 11:35:32;;;;;;;;;;;;;;;;;;5112649;28;19919;-46
2023/12/01 11:37:59;;;;;;;;;;;;;;;;;;5113162;28;19950;-47
2023/12/01 11:40:26;;;;;;;;;;;;;;;;;;5114549;28;20384;-46
2023/12/01 11:42:52;;;;;;;;;;;;;;;;;;5098837;28;19965;-47
2023/12/01 11:45:19;;;;;;;;;;;;;;;;;;5085551;28;19912;-47
2023/12/01 11:47:45;;;;;;;;;;;;;;;;;;5099886;28;19912;-47
2023/12/01 11:50:12;;;;;;;;;;;;;;;;;;5103968;28;19912;-46
2023/12/01 11:52:41;;;;;;;;;;;;;;;;;;5095954;28;19923;-47
2023/12/01 11:55:09;;;;;;;;;;;;;;;;;;5094262;28;19920;-46
2023/12/01 11:57:36;;;;;;;;;;;;;;;;;;5112298;28;19927;-46
2023/12/01 12:00:03;;;;;;;;;;;;;;;;;;5110988;28;19980;-47
2023/12/01 12:02:37;;;;;;;;;;;;;;;;;;5098031;28;20545;-49
2023/12/01 12:05:05;;;;;;;;;;;;;;;;;;5102550;28;19920;-47
2023/12/01 12:07:31;;;;;;;;;;;;;;;;;;5073840;28;19908;-47
2023/12/01 12:09:57;;;;;;;;;;;;;;;;;;5090906;28;20005;-46
2023/12/01 12:12:23;;;;;;;;;;;;;;;;;;5108993;28;19926;-46
2023/12/01 12:14:52;;;;;;;;;;;;;;;;;;5097596;28;19984;-47
2023/12/01 12:17:18;;;;;;;;;;;;;;;;;;5090936;28;20311;-47
2023/12/01 12:19:44;;;;;;;;;;;;;;;;;;5075274;28;20438;-45
2023/12/01 12:22:10;;;;;;;;;;;;;;;;;;5090805;28;19938;-47
2023/12/01 12:24:36;;;;;;;;;;;;;;;;;;5091830;28;19916;-46
2023/12/01 12:27:02;;;;;;;;;;;;;;;;;;5090342;28;19956;-46
2023/12/01 12:29:28;;;;;;;;;;;;;;;;;;5092845;28;19940;-46
2023/12/01 12:31:54;;;;;;;;;;;;;;;;;;5081239;28;20296;-47
2023/12/01 12:34:21;;;;;;;;;;;;;;;;;;5071577;28;19917;-47
2023/12/01 12:36:50;;;;;;;;;;;;;;;;;;5104674;28;20003;-47
2023/12/01 12:39:16;;;;;;;;;;;;;;;;;;5112295;28;19955;-47
2023/12/01 12:41:42;;;;;;;;;;;;;;;;;;5108888;28;20494;-49
2023/12/01 12:44:08;;;;;;;;;;;;;;;;;;5109530;28;19915;-48
2023/12/01 12:46:34;;;;;;;;;;;;;;;;;;5103309;28;20006;-46
2023/12/01 12:49:01;;;;;;;;;;;;;;;;;;5096049;28;20007;-47
2023/12/01 12:51:28;;;;;;;;;;;;;;;;;;5091783;28;19916;-47
2023/12/01 12:53:54;;;;;;;;;;;;;;;;;;5099819;28;20291;-46
2023/12/01 12:56:23;;;;;;;;;;;;;;;;;;5096279;28;20269;-46
2023/12/01 12:58:50;;;;;;;;;;;;;;;;;;5112011;28;19969;-45
2023/12/01 13:01:16;;;;;;;;;;;;;;;;;;5104560;28;19916;-48
2023/12/01 13:03:42;;;;;;;;;;;;;;;;;;5093216;28;19919;-47
2023/12/01 13:06:08;;;;;;;;;;;;;;;;;;5103585;28;20430;-48
2023/12/01 13:08:34;;;;;;;;;;;;;;;;;;5112754;28;20502;-49
2023/12/01 13:11:00;;;;;;;;;;;;;;;;;;5113232;28;19912;-48
2023/12/01 13:13:26;;;;;;;;;;;;;;;;;;5093163;28;19920;-49
2023/12/01 13:15:53;;;;;;;;;;;;;;;;;;5095234;28;19942;-47
2023/12/01 13:18:19;;;;;;;;;;;;;;;;;;5093865;28;19962;-48
2023/12/01 13:20:45;;;;;;;;;;;;;;;;;;5091048;28;19913;-51
2023/12/01 13:23:11;;;;;;;;;;;;;;;;;;5096182;28;19912;-47
2023/12/01 13:25:37;;;;;;;;;;;;;;;;;;5103606;28;19916;-46
2023/12/01 13:28:03;;;;;;;;;;;;;;;;;;5091818;28;19924;-49
2023/12/01 13:30:29;;;;;;;;;;;;;;;;;;5106689;28;19912;-48
2023/12/01 13:32:55;;;;;;;;;;;;;;;;;;5111943;28;19915;-47
2023/12/01 13:35:22;;;;;;;;;;;;;;;;;;5093181;28;20337;-47
2023/12/01 13:37:48;;;;;;;;;;;;;;;;;;5112816;28;19955;-49
2023/12/01 13:40:14;;;;;;;;;;;;;;;;;;5112845;28;20395;-48
2023/12/01 13:42:41;;;;;;;;;;;;;;;;;;5111796;28;20445;-47
2023/12/01 13:45:07;;;;;;;;;;;;;;;;;;5092271;28;19916;-49
2023/12/01 13:47:33;;;;;;;;;;;;;;;;;;5092710;28;19935;-48
2023/12/01 13:49:59;;;;;;;;;;;;;;;;;;5093482;28;19956;-47
2023/12/01 13:52:27;;;;;;;;;;;;;;;;;;5092192;28;19912;-47
2023/12/01 13:54:53;;;;;;;;;;;;;;;;;;5095169;28;19958;-47
2023/12/01 13:57:19;;;;;;;;;;;;;;;;;;5096108;28;19912;-46
2023/12/01 13:59:45;;;;;;;;;;;;;;;;;;5097887;28;19951;-47
2023/12/01 14:02:11;;;;;;;;;;;;;;;;;;5092120;28;20304;-49
2023/12/01 14:04:37;;;;;;;;;;;;;;;;;;5088847;28;20011;-50
2023/12/01 14:07:05;;;;;;;;;;;;;;;;;;5091066;28;20010;-48
2023/12/01 14:09:31;;;;;;;;;;;;;;;;;;5091002;28;20376;-47
2023/12/01 14:11:57;;;;;;;;;;;;;;;;;;5092039;28;19919;-47
2023/12/01 14:14:23;;;;;;;;;;;;;;;;;;5103459;28;19941;-48
2023/12/01 14:16:49;;;;;;;;;;;;;;;;;;5092699;28;19955;-46
2023/12/01 14:19:16;;;;;;;;;;;;;;;;;;5092102;28;19937;-47
2023/12/01 14:21:42;;;;;;;;;;;;;;;;;;5099648;28;19912;-47
2023/12/01 14:24:08;;;;;;;;;;;;;;;;;;5107985;28;20302;-47
2023/12/01 14:26:34;;;;;;;;;;;;;;;;;;5106158;28;19919;-47
2023/12/01 14:29:01;;;;;;;;;;;;;;;;;;5112288;28;19912;-47
2023/12/01 14:31:27;;;;;;;;;;;;;;;;;;5106518;28;19916;-47
2023/12/01 14:33:53;;;;;;;;;;;;;;;;;;5091923;28;19919;-48
2023/12/01 14:36:19;;;;;;;;;;;;;;;;;;5091977;28;19913;-46
2023/12/01 14:38:45;;;;;;;;;;;;;;;;;;5090595;28;19913;-49
2023/12/01 14:41:11;;;;;;;;;;;;;;;;;;5093959;28;19912;-47
2023/12/01 14:43:37;;;;;;;;;;;;;;;;;;5096153;28;19915;-49
2023/12/01 14:46:03;;;;;;;;;;;;;;;;;;5107694;28;19916;-50
2023/12/01 14:48:29;;;;;;;;;;;;;;;;;;5106709;28;20371;-48
2023/12/01 14:50:55;;;;;;;;;;;;;;;;;;5095384;28;20639;-49
2023/12/01 14:53:21;;;;;;;;;;;;;;;;;;5104319;28;19916;-48
2023/12/01 14:55:47;;;;;;;;;;;;;;;;;;5096553;28;19912;-50
2023/12/01 14:58:14;;;;;;;;;;;;;;;;;;5093671;28;20007;-47
2023/12/01 15:00:40;;;;;;;;;;;;;;;;;;5094260;28;19912;-49
2023/12/01 15:03:06;;;;;;;;;;;;;;;;;;5095243;28;20304;-50
2023/12/01 15:05:33;;;;;;;;;;;;;;;;;;5095284;28;19912;-48
2023/12/01 15:07:59;;;;;;;;;;;;;;;;;;5095291;28;19916;-50
2023/12/01 15:10:25;;;;;;;;;;;;;;;;;;5095057;28;19916;-48
2023/12/01 15:12:51;;;;;;;;;;;;;;;;;;5095242;28;19912;-48
2023/12/01 15:15:17;;;;;;;;;;;;;;;;;;5095067;28;19981;-50
2023/12/01 15:17:43;;;;;;;;;;;;;;;;;;5095007;28;20342;-49
2023/12/01 15:20:09;;;;;;;;;;;;;;;;;;5095173;28;20292;-47
2023/12/01 15:22:35;;;;;;;;;;;;;;;;;;5094953;28;19958;-48
2023/12/01 15:25:01;;;;;;;;;;;;;;;;;;5094941;28;19935;-46
2023/12/01 15:27:27;;;;;;;;;;;;;;;;;;5092667;28;19916;-48
2023/12/01 15:29:53;;;;;;;;;;;;;;;;;;5093994;28;19912;-48
2023/12/01 15:32:19;;;;;;;;;;;;;;;;;;5093997;28;19912;-48
2023/12/01 15:34:45;;;;;;;;;;;;;;;;;;5093805;28;19920;-49
2023/12/01 15:37:11;;;;;;;;;;;;;;;;;;5094530;28;20010;-47
2023/12/01 15:39:37;;;;;;;;;;;;;;;;;;5093500;28;19919;-49
2023/12/01 15:42:03;;;;;;;;;;;;;;;;;;5094423;28;20387;-48
2023/12/01 15:44:29;;;;;;;;;;;;;;;;;;5093462;28;20384;-48
2023/12/01 15:46:55;;;;;;;;;;;;;;;;;;5093174;28;20388;-51
2023/12/01 15:49:22;;;;;;;;;;;;;;;;;;5094821;28;19919;-47
2023/12/01 15:51:48;;;;;;;;;;;;;;;;;;5093032;28;20061;-48
2023/12/01 15:54:14;;;;;;;;;;;;;;;;;;5094151;28;19993;-48
2023/12/01 15:56:40;;;;;;;;;;;;;;;;;;5094403;28;19913;-46
2023/12/01 15:59:06;;;;;;;;;;;;;;;;;;5094407;28;19999;-47
2023/12/01 16:01:32;;;;;;;;;;;;;;;;;;5094197;28;19919;-50
2023/12/01 16:03:58;;;;;;;;;;;;;;;;;;5094167;28;19913;-48
2023/12/01 16:06:24;;;;;;;;;;;;;;;;;;5094570;28;19912;-47
2023/12/01 16:08:50;;;;;;;;;;;;;;;;;;5094089;28;19912;-50
2023/12/01 16:11:16;;;;;;;;;;;;;;;;;;5093944;28;19991;-49
2023/12/01 16:13:42;;;;;;;;;;;;;;;;;;5093906;28;19916;-48
2023/12/01 16:16:08;;;;;;;;;;;;;;;;;;5094057;28;19912;-48
2023/12/01 16:18:34;;;;;;;;;;;;;;;;;;5094127;28;19916;-48
2023/12/01 16:21:00;;;;;;;;;;;;;;;;;;5075498;28;19912;-49
2023/12/01 16:23:26;;;;;;;;;;;;;;;;;;5093684;28;19916;-48
2023/12/01 16:25:52;;;;;;;;;;;;;;;;;;5093751;28;20311;-49
2023/12/01 16:28:18;;;;;;;;;;;;;;;;;;5093799;28;19916;-48
2023/12/01 16:30:46;;;;;;;;;;;;;;;;;;5093489;28;19912;-49
2023/12/01 16:33:13;;;;;;;;;;;;;;;;;;5093566;28;20376;-49
2023/12/01 16:35:39;;;;;;;;;;;;;;;;;;5092165;28;19937;-50
2023/12/01 16:38:05;;;;;;;;;;;;;;;;;;5093467;28;19912;-48
2023/12/01 16:40:31;;;;;;;;;;;;;;;;;;5093130;28;20334;-48